createdAt,value
2023-02-02T00:02:04.511Z,46.82
2023-02-02T00:04:53.135Z,46.83
2023-02-02T00:07:43.793Z,46.90
2023-02-02T00:10:34.286Z,47.08
2023-02-02T00:13:22.929Z,46.80
2023-02-02T00:16:37.073Z,46.88
2023-02-02T00:19:30.055Z,46.80
2023-02-02T00:22:18.653Z,46.92
2023-02-02T00:25:08.180Z,46.50
2023-02-02T00:27:56.873Z,46.95
2023-02-02T00:30:45.663Z,46.95
2023-02-02T00:33:34.364Z,47.16
2023-02-02T00:36:24.887Z,46.88
2023-02-02T00:39:18.499Z,47.26
2023-02-02T00:42:07.184Z,47.47
2023-02-02T00:45:13.180Z,47.25
2023-02-02T00:48:01.796Z,47.25
2023-02-02T00:50:50.522Z,47.45
2023-02-02T00:53:40.464Z,47.56
2023-02-02T00:56:29.234Z,47.44
2023-02-02T00:59:17.845Z,47.21
2023-02-02T01:02:06.639Z,47.64
2023-02-02T01:04:55.259Z,47.39
2023-02-02T01:07:44.145Z,47.49
2023-02-02T01:10:34.732Z,47.74
2023-02-02T01:13:23.328Z,47.37
2023-02-02T01:16:12.765Z,47.97
2023-02-02T01:19:01.446Z,47.83
2023-02-02T01:21:51.133Z,47.84
2023-02-02T01:24:39.772Z,47.97
2023-02-02T01:27:29.880Z,48.09
2023-02-02T01:30:18.516Z,47.71
2023-02-02T01:33:07.191Z,48.00
2023-02-02T01:35:57.206Z,47.83
2023-02-02T01:38:45.863Z,48.21
2023-02-02T01:41:34.525Z,47.91
2023-02-02T01:45:00.242Z,48.00
2023-02-02T01:47:52.898Z,48.13
2023-02-02T01:50:41.673Z,47.88
2023-02-02T01:53:30.576Z,47.71
2023-02-02T01:56:22.618Z,47.74
2023-02-02T01:59:12.128Z,47.99
2023-02-02T02:02:00.847Z,47.58
2023-02-02T02:04:51.698Z,47.86
2023-02-02T02:07:42.071Z,47.54
2023-02-02T02:10:30.654Z,47.79
2023-02-02T02:13:19.433Z,47.48
2023-02-02T02:16:20.324Z,47.76
2023-02-02T02:19:16.814Z,47.89
2023-02-02T02:22:28.560Z,47.94
2023-02-02T02:25:55.850Z,47.84
2023-02-02T02:29:06.347Z,47.77
2023-02-02T02:32:15.690Z,47.63
2023-02-02T02:35:06.874Z,47.55
2023-02-02T02:38:00.366Z,48.22
2023-02-02T02:40:52.763Z,48.07
2023-02-02T02:43:44.011Z,48.06
2023-02-02T02:46:33.172Z,47.76
2023-02-02T02:49:23.182Z,47.62
2023-02-02T02:52:11.762Z,48.02
2023-02-02T02:55:01.737Z,47.81
2023-02-02T02:58:06.626Z,48.33
2023-02-02T03:01:06.660Z,48.03
2023-02-02T03:04:03.790Z,48.10
2023-02-02T03:06:56.748Z,48.03
2023-02-02T03:09:46.011Z,48.11
2023-02-02T03:12:34.598Z,47.85
2023-02-02T03:15:23.619Z,47.65
2023-02-02T03:18:13.185Z,47.93
2023-02-02T03:21:02.172Z,48.15
2023-02-02T03:23:52.235Z,47.87
2023-02-02T03:26:40.924Z,47.98
2023-02-02T03:29:29.984Z,47.83
2023-02-02T03:32:18.730Z,48.10
2023-02-02T03:35:08.282Z,48.24
2023-02-02T03:37:57.118Z,48.34
2023-02-02T03:40:47.124Z,48.25
2023-02-02T03:43:35.658Z,48.14
2023-02-02T03:46:24.368Z,48.56
2023-02-02T03:49:12.999Z,48.42
2023-02-02T03:52:02.684Z,48.23
2023-02-02T03:54:51.294Z,48.13
2023-02-02T03:57:41.247Z,48.29
2023-02-02T04:00:29.841Z,48.03
2023-02-02T04:03:18.479Z,47.98
2023-02-02T04:06:07.477Z,47.97
2023-02-02T04:08:56.083Z,47.88
2023-02-02T04:11:44.705Z,48.20
2023-02-02T04:14:34.748Z,48.26
2023-02-02T04:17:23.337Z,48.26
2023-02-02T04:20:13.414Z,48.12
2023-02-02T04:23:02.026Z,47.96
2023-02-02T04:25:51.069Z,47.88
2023-02-02T04:28:39.632Z,47.96
2023-02-02T04:31:30.196Z,48.34
2023-02-02T04:34:19.090Z,48.18
2023-02-02T04:37:07.721Z,48.06
2023-02-02T04:39:56.320Z,48.26
2023-02-02T04:42:45.417Z,47.94
2023-02-02T04:45:34.134Z,48.27
2023-02-02T04:48:24.179Z,48.07
2023-02-02T04:51:14.724Z,48.54
2023-02-02T04:54:03.364Z,48.20
2023-02-02T04:56:51.967Z,48.23
2023-02-02T04:59:42.468Z,48.73
2023-02-02T05:02:31.190Z,48.44
2023-02-02T05:05:21.423Z,48.45
2023-02-02T05:08:11.999Z,48.31
2023-02-02T05:11:00.959Z,48.55
2023-02-02T05:13:51.006Z,48.58
2023-02-02T05:16:40.333Z,48.49
2023-02-02T05:19:28.979Z,48.61
2023-02-02T05:22:18.956Z,48.50
2023-02-02T05:25:08.545Z,48.18
2023-02-02T05:27:57.197Z,48.35
2023-02-02T05:30:45.866Z,47.43
2023-02-02T05:33:34.490Z,46.16
2023-02-02T05:36:23.045Z,45.65
2023-02-02T05:39:13.178Z,45.80
2023-02-02T05:42:01.791Z,45.39
2023-02-02T05:44:50.364Z,45.18
2023-02-02T05:47:38.986Z,45.09
2023-02-02T05:50:27.638Z,45.05
2023-02-02T05:53:16.416Z,45.24
2023-02-02T05:56:07.063Z,46.18
2023-02-02T05:58:55.648Z,46.71
2023-02-02T06:01:44.400Z,46.71
2023-02-02T06:04:33.105Z,47.07
2023-02-02T06:07:21.773Z,47.31
2023-02-02T06:10:11.161Z,47.21
2023-02-02T06:13:01.265Z,47.07
2023-02-02T06:15:49.972Z,47.73
2023-02-02T06:18:39.116Z,47.54
2023-02-02T06:21:31.050Z,47.85
2023-02-02T06:24:19.830Z,47.67
2023-02-02T06:27:09.030Z,47.93
2023-02-02T06:29:59.054Z,48.09
2023-02-02T06:32:47.616Z,47.71
2023-02-02T06:35:37.407Z,48.16
2023-02-02T06:38:26.125Z,47.83
2023-02-02T06:41:14.718Z,48.16
2023-02-02T06:44:10.598Z,48.03
2023-02-02T06:47:03.886Z,48.16
2023-02-02T06:49:52.942Z,48.21
2023-02-02T06:52:41.506Z,48.04
2023-02-02T06:55:30.106Z,47.55
2023-02-02T06:58:18.661Z,47.51
2023-02-02T07:01:08.741Z,48.15
2023-02-02T07:03:58.945Z,48.39
2023-02-02T07:06:47.911Z,47.90
2023-02-02T07:09:36.998Z,47.79
2023-02-02T07:12:26.841Z,47.75
2023-02-02T07:15:15.480Z,47.69
2023-02-02T07:18:04.062Z,48.07
2023-02-02T07:20:54.083Z,47.64
2023-02-02T07:23:42.676Z,48.17
2023-02-02T07:26:31.358Z,47.73
2023-02-02T07:29:20.026Z,47.57
2023-02-02T07:32:08.767Z,47.65
2023-02-02T07:34:57.440Z,47.61
2023-02-02T07:37:53.538Z,47.17
2023-02-02T07:40:42.203Z,47.42
2023-02-02T07:43:30.932Z,47.28
2023-02-02T07:46:20.868Z,47.11
2023-02-02T07:49:09.574Z,47.69
2023-02-02T07:51:58.294Z,47.54
2023-02-02T07:54:48.792Z,46.88
2023-02-02T07:57:37.480Z,47.56
2023-02-02T08:00:26.630Z,47.20
2023-02-02T08:03:15.616Z,47.39
2023-02-02T08:06:11.862Z,47.11
2023-02-02T08:09:01.420Z,47.20
2023-02-02T08:11:51.431Z,47.16
2023-02-02T08:14:40.064Z,47.01
2023-02-02T08:17:28.700Z,47.00
2023-02-02T08:20:17.583Z,46.76
2023-02-02T08:23:09.196Z,46.98
2023-02-02T08:26:07.420Z,47.29
2023-02-02T08:28:58.696Z,47.61
2023-02-02T08:31:47.466Z,46.92
2023-02-02T08:34:36.957Z,47.13
2023-02-02T08:37:25.600Z,46.67
2023-02-02T08:40:14.873Z,46.98
2023-02-02T08:43:04.276Z,47.20
2023-02-02T08:46:01.093Z,46.94
2023-02-02T08:48:52.313Z,47.47
2023-02-02T08:51:41.714Z,47.04
2023-02-02T08:54:30.623Z,47.17
2023-02-02T08:57:19.440Z,47.60
2023-02-02T09:00:09.489Z,47.66
2023-02-02T09:02:59.800Z,47.92
2023-02-02T09:05:49.443Z,48.09
2023-02-02T09:08:38.840Z,48.63
2023-02-02T09:11:27.831Z,48.25
2023-02-02T09:14:16.926Z,47.79
2023-02-02T09:17:05.660Z,47.81
2023-02-02T09:19:55.569Z,47.43
2023-02-02T09:22:44.224Z,47.29
2023-02-02T09:25:32.923Z,47.56
2023-02-02T09:28:21.533Z,47.19
2023-02-02T09:31:10.607Z,47.24
2023-02-02T09:34:03.271Z,47.21
2023-02-02T09:36:54.320Z,47.55
2023-02-02T09:39:43.149Z,47.29
2023-02-02T09:42:44.781Z,47.31
2023-02-02T09:45:38.911Z,47.31
2023-02-02T09:48:33.430Z,47.44
2023-02-02T09:51:25.216Z,47.50
2023-02-02T09:54:20.155Z,47.82
2023-02-02T09:57:15.733Z,47.15
2023-02-02T10:00:05.758Z,47.49
2023-02-02T10:02:58.589Z,47.54
2023-02-02T10:05:52.200Z,47.70
2023-02-02T10:08:45.642Z,47.51
2023-02-02T10:11:38.866Z,48.35
2023-02-02T10:14:32.204Z,47.83
2023-02-02T10:17:33.346Z,47.58
2023-02-02T10:20:33.670Z,47.89
2023-02-02T10:23:27.153Z,47.88
2023-02-02T10:26:19.476Z,48.06
2023-02-02T10:29:16.983Z,47.96
2023-02-02T10:32:22.461Z,47.59
2023-02-02T10:35:29.813Z,47.74
2023-02-02T10:38:22.465Z,47.93
2023-02-02T10:41:19.885Z,47.75
2023-02-02T10:44:19.314Z,47.87
2023-02-02T10:47:11.529Z,47.60
2023-02-02T10:50:15.141Z,47.85
2023-02-02T10:53:08.444Z,47.81
2023-02-02T10:56:00.854Z,47.32
2023-02-02T10:58:55.107Z,47.23
2023-02-02T11:01:45.161Z,47.47
2023-02-02T11:04:51.518Z,47.21
2023-02-02T11:07:40.088Z,47.24
2023-02-02T11:10:28.745Z,47.48
2023-02-02T11:13:28.686Z,47.92
2023-02-02T11:16:22.863Z,47.47
2023-02-02T11:19:34.287Z,47.86
2023-02-02T11:22:30.899Z,47.94
2023-02-02T11:25:28.576Z,47.79
2023-02-02T11:28:21.670Z,48.05
2023-02-02T11:31:12.912Z,47.82
2023-02-02T11:34:13.093Z,47.50
2023-02-02T11:37:06.043Z,47.35
2023-02-02T11:39:54.655Z,47.72
2023-02-02T11:42:46.231Z,47.91
2023-02-02T11:45:37.404Z,48.04
2023-02-02T11:48:30.466Z,47.68
2023-02-02T11:51:24.383Z,47.88
2023-02-02T11:54:29.039Z,47.55
2023-02-02T11:57:20.585Z,47.69
2023-02-02T12:00:18.936Z,47.71
2023-02-02T12:03:24.876Z,47.90
2023-02-02T12:06:21.472Z,48.03
2023-02-02T12:09:13.927Z,47.70
2023-02-02T12:12:09.276Z,47.84
2023-02-02T12:15:04.776Z,47.88
2023-02-02T12:17:57.197Z,47.80
2023-02-02T12:20:51.138Z,47.88
2023-02-02T12:24:00.600Z,48.13
2023-02-02T12:26:52.103Z,48.00
2023-02-02T12:30:10.084Z,47.70
2023-02-02T12:33:13.815Z,46.54
2023-02-02T12:36:23.261Z,45.81
2023-02-02T12:39:22.698Z,44.95
2023-02-02T12:42:30.518Z,45.00
2023-02-02T12:45:36.797Z,45.50
2023-02-02T12:48:35.884Z,46.19
2023-02-02T12:51:44.498Z,46.49
2023-02-02T12:54:57.699Z,46.71
2023-02-02T12:57:55.452Z,46.75
2023-02-02T13:01:11.292Z,46.57
2023-02-02T13:04:12.878Z,46.88
2023-02-02T13:07:13.598Z,47.10
2023-02-02T13:10:08.734Z,46.88
2023-02-02T13:13:00.722Z,46.81
2023-02-02T13:15:52.585Z,47.02
2023-02-02T13:18:47.548Z,47.08
2023-02-02T13:21:37.432Z,47.31
2023-02-02T13:24:32.007Z,47.44
2023-02-02T13:27:22.102Z,47.20
2023-02-02T13:30:15.647Z,46.93
2023-02-02T13:33:07.055Z,46.95
2023-02-02T13:36:00.074Z,47.19
2023-02-02T13:38:48.706Z,46.62
2023-02-02T13:41:38.158Z,46.73
2023-02-02T13:44:32.128Z,47.33
2023-02-02T13:47:24.415Z,47.39
2023-02-02T13:50:16.828Z,47.38
2023-02-02T13:53:20.709Z,47.46
2023-02-02T13:56:25.705Z,46.96
2023-02-02T13:59:26.519Z,47.05
2023-02-02T14:02:23.761Z,47.03
2023-02-02T14:05:25.924Z,47.44
2023-02-02T14:08:20.727Z,47.26
2023-02-02T14:11:09.861Z,47.67
2023-02-02T14:14:18.041Z,47.39
2023-02-02T14:17:08.320Z,47.29
2023-02-02T14:19:57.838Z,47.32
2023-02-02T14:22:50.833Z,47.18
2023-02-02T14:26:07.118Z,47.44
2023-02-02T14:28:55.716Z,47.24
2023-02-02T14:31:54.250Z,47.90
2023-02-02T14:34:43.420Z,48.12
2023-02-02T14:37:40.593Z,48.28
2023-02-02T14:40:35.552Z,48.63
2023-02-02T14:43:45.138Z,48.41
2023-02-02T14:46:36.759Z,48.65
2023-02-02T14:49:27.614Z,48.55
2023-02-02T14:52:22.971Z,47.90
2023-02-02T14:55:19.801Z,48.07
2023-02-02T14:58:09.053Z,47.84
2023-02-02T15:01:08.375Z,47.76
2023-02-02T15:03:58.895Z,47.98
2023-02-02T15:06:48.000Z,47.51
2023-02-02T15:09:39.250Z,47.88
2023-02-02T15:12:34.447Z,47.77
2023-02-02T15:15:25.581Z,47.02
2023-02-02T15:18:18.703Z,38.67
2023-02-02T15:21:08.412Z,36.11
2023-02-02T15:23:57.609Z,33.56
2023-02-02T15:26:47.106Z,34.31
2023-02-02T15:29:41.535Z,37.10
2023-02-02T15:32:30.924Z,38.46
2023-02-02T15:35:23.298Z,39.66
2023-02-02T15:38:17.439Z,40.16
2023-02-02T15:41:07.605Z,40.39
2023-02-02T15:43:56.527Z,40.57
2023-02-02T15:46:45.260Z,41.11
2023-02-02T15:49:35.782Z,41.04
2023-02-02T15:52:28.349Z,41.10
2023-02-02T15:55:23.008Z,40.73
2023-02-02T15:58:30.036Z,40.72
2023-02-02T16:01:21.272Z,41.16
2023-02-02T16:04:16.616Z,41.25
2023-02-02T16:07:06.455Z,40.61
2023-02-02T16:09:56.514Z,40.95
2023-02-02T16:12:45.185Z,40.58
2023-02-02T16:15:33.811Z,40.78
2023-02-02T16:18:22.472Z,40.85
2023-02-02T16:21:17.007Z,40.97
2023-02-02T16:24:06.798Z,41.27
2023-02-02T16:27:00.015Z,40.75
2023-02-02T16:29:48.861Z,41.13
2023-02-02T16:32:39.741Z,41.24
2023-02-02T16:35:36.282Z,41.54
2023-02-02T16:38:26.522Z,42.80
2023-02-02T16:41:26.014Z,42.58
2023-02-02T16:44:38.898Z,42.92
2023-02-02T16:47:38.851Z,43.17
2023-02-02T16:50:31.949Z,42.96
2023-02-02T16:53:24.063Z,43.55
2023-02-02T16:56:23.232Z,43.70
2023-02-02T16:59:18.794Z,43.85
2023-02-02T17:02:21.236Z,44.23
2023-02-02T17:05:19.303Z,43.81
2023-02-02T17:08:08.365Z,43.78
2023-02-02T17:11:06.581Z,43.73
2023-02-02T17:13:56.393Z,43.89
2023-02-02T17:16:45.018Z,43.95
2023-02-02T17:19:35.197Z,43.59
2023-02-02T17:22:25.554Z,43.77
2023-02-02T17:25:17.040Z,43.69
2023-02-02T17:28:10.838Z,43.35
2023-02-02T17:31:01.457Z,43.56
2023-02-02T17:33:50.214Z,43.05
2023-02-02T17:36:40.367Z,43.40
2023-02-02T17:39:29.053Z,44.20
2023-02-02T17:42:23.277Z,43.76
2023-02-02T17:45:21.135Z,43.88
2023-02-02T17:48:12.707Z,44.22
2023-02-02T17:51:11.237Z,43.83
2023-02-02T17:54:01.577Z,43.74
2023-02-02T17:56:51.855Z,43.26
2023-02-02T17:59:40.586Z,43.45
2023-02-02T18:02:30.537Z,43.10
2023-02-02T18:05:21.481Z,43.18
2023-02-02T18:08:11.701Z,43.19
2023-02-02T18:11:02.333Z,43.21
2023-02-02T18:13:51.072Z,43.30
2023-02-02T18:16:40.276Z,43.92
2023-02-02T18:19:31.379Z,43.89
2023-02-02T18:22:22.756Z,43.92
2023-02-02T18:25:11.880Z,43.61
2023-02-02T18:28:07.605Z,43.38
2023-02-02T18:30:56.662Z,43.42
2023-02-02T18:33:45.987Z,43.69
2023-02-02T18:36:36.300Z,43.32
2023-02-02T18:39:25.081Z,43.82
2023-02-02T18:42:14.602Z,43.20
2023-02-02T18:45:06.213Z,43.18
2023-02-02T18:47:55.380Z,42.80
2023-02-02T18:50:44.020Z,43.32
2023-02-02T18:53:32.880Z,43.44
2023-02-02T18:56:21.490Z,43.02
2023-02-02T18:59:10.305Z,43.23
2023-02-02T19:02:00.391Z,43.30
2023-02-02T19:05:02.892Z,43.18
2023-02-02T19:07:58.181Z,43.02
2023-02-02T19:10:47.365Z,42.91
2023-02-02T19:13:36.102Z,42.99
2023-02-02T19:16:27.255Z,42.88
2023-02-02T19:19:24.886Z,43.37
2023-02-02T19:22:20.761Z,44.03
2023-02-02T19:25:13.108Z,44.63
2023-02-02T19:28:04.805Z,43.88
2023-02-02T19:30:54.624Z,44.78
2023-02-02T19:33:45.300Z,44.64
2023-02-02T19:36:38.224Z,44.71
2023-02-02T19:39:30.737Z,44.75
2023-02-02T19:42:19.480Z,44.75
2023-02-02T19:45:22.344Z,44.84
2023-02-02T19:48:16.858Z,44.47
2023-02-02T19:51:27.988Z,44.47
2023-02-02T19:54:26.422Z,44.77
2023-02-02T19:57:20.717Z,44.70
2023-02-02T20:00:20.102Z,44.26
2023-02-02T20:03:12.578Z,44.24
2023-02-02T20:06:01.313Z,44.49
2023-02-02T20:08:49.931Z,44.30
2023-02-02T20:11:41.430Z,44.38
2023-02-02T20:14:32.690Z,44.32
2023-02-02T20:17:26.536Z,44.57
2023-02-02T20:20:23.907Z,44.49
2023-02-02T20:23:24.539Z,44.10
2023-02-02T20:26:22.888Z,44.58
2023-02-02T20:29:22.301Z,44.50
2023-02-02T20:32:18.807Z,44.64
2023-02-02T20:35:22.680Z,44.42
2023-02-02T20:38:19.911Z,44.65
2023-02-02T20:41:08.611Z,45.58
2023-02-02T20:43:57.152Z,45.26
2023-02-02T20:46:47.213Z,45.98
2023-02-02T20:49:36.183Z,45.42
2023-02-02T20:52:25.307Z,45.54
2023-02-02T20:55:14.200Z,45.18
2023-02-02T20:58:03.191Z,45.44
2023-02-02T21:00:51.976Z,44.99
2023-02-02T21:03:42.133Z,45.11
2023-02-02T21:06:30.725Z,45.11
2023-02-02T21:09:19.411Z,45.22
2023-02-02T21:12:08.160Z,44.80
2023-02-02T21:14:56.847Z,45.16
2023-02-02T21:17:45.519Z,45.26
2023-02-02T21:20:35.462Z,45.12
2023-02-02T21:23:24.112Z,45.09
2023-02-02T21:26:12.739Z,45.27
2023-02-02T21:29:01.458Z,45.04
2023-02-02T21:31:50.071Z,45.08
2023-02-02T21:34:42.029Z,46.13
2023-02-02T21:37:32.281Z,41.71
2023-02-02T21:40:27.571Z,37.51
2023-02-02T21:43:18.358Z,36.75
2023-02-02T21:46:07.078Z,35.79
2023-02-02T21:48:55.802Z,34.62
2023-02-02T21:51:44.395Z,38.00
2023-02-02T21:54:38.594Z,40.35
2023-02-02T21:57:36.132Z,41.70
2023-02-02T22:00:33.617Z,41.99
2023-02-02T22:03:32.542Z,43.09
2023-02-02T22:06:26.937Z,42.95
2023-02-02T22:09:20.241Z,43.45
2023-02-02T22:12:18.492Z,44.08
2023-02-02T22:15:18.172Z,43.68
2023-02-02T22:18:14.516Z,44.27
2023-02-02T22:21:03.072Z,44.50
2023-02-02T22:23:51.758Z,44.67
2023-02-02T22:26:40.312Z,45.12
2023-02-02T22:29:31.166Z,45.39
2023-02-02T22:32:19.699Z,45.50
2023-02-02T22:35:12.611Z,45.58
2023-02-02T22:38:01.190Z,45.75
2023-02-02T22:40:51.303Z,46.07
2023-02-02T22:43:40.023Z,46.04
2023-02-02T22:46:30.094Z,46.18
2023-02-02T22:49:18.750Z,46.68
2023-02-02T22:52:07.508Z,46.33
2023-02-02T22:54:56.058Z,46.67
2023-02-02T22:57:44.800Z,46.54
2023-02-02T23:00:34.485Z,47.05
2023-02-02T23:03:24.685Z,46.61
2023-02-02T23:06:13.325Z,46.61
2023-02-02T23:09:01.897Z,46.79
2023-02-02T23:11:50.493Z,47.00
2023-02-02T23:14:39.128Z,47.08
2023-02-02T23:17:27.757Z,47.20
2023-02-02T23:20:18.715Z,47.06
2023-02-02T23:23:07.338Z,46.79
2023-02-02T23:25:55.905Z,47.18
2023-02-02T23:28:44.495Z,47.28
2023-02-02T23:31:33.199Z,47.16
2023-02-02T23:34:21.955Z,47.43
2023-02-02T23:37:14.409Z,47.50
2023-02-02T23:40:03.014Z,47.02
2023-02-02T23:42:51.627Z,47.45
2023-02-02T23:45:40.385Z,47.33
2023-02-02T23:48:29.120Z,47.16
2023-02-02T23:51:17.894Z,47.63
2023-02-02T23:54:08.226Z,47.72
2023-02-02T23:56:57.201Z,47.50
2023-02-02T23:59:45.920Z,47.97
